createdAt,value
2018-03-22T00:00:57.392Z,1016.35
2018-03-22T00:01:57.386Z,1016.24
2018-03-22T00:02:57.390Z,1016.31
2018-03-22T00:03:57.407Z,1016.29
2018-03-22T00:04:57.408Z,1016.25
2018-03-22T00:05:57.396Z,1016.29
2018-03-22T00:06:57.415Z,1016.26
2018-03-22T00:07:57.402Z,1016.22
2018-03-22T00:08:57.408Z,1016.19
2018-03-22T00:09:57.405Z,1016.17
2018-03-22T00:10:57.406Z,1016.17
2018-03-22T00:11:57.412Z,1016.24
2018-03-22T00:12:57.412Z,1016.22
2018-03-22T00:13:57.418Z,1016.17
2018-03-22T00:14:57.410Z,1016.20
2018-03-22T00:15:58.443Z,1016.21
2018-03-22T00:16:57.421Z,1016.23
2018-03-22T00:17:57.432Z,1016.22
2018-03-22T00:18:57.416Z,1016.22
2018-03-22T00:19:57.417Z,1016.19
2018-03-22T00:20:57.425Z,1016.20
2018-03-22T00:21:57.418Z,1016.21
2018-03-22T00:22:57.427Z,1016.20
2018-03-22T00:23:57.419Z,1016.15
2018-03-22T00:24:57.430Z,1016.12
2018-03-22T00:25:57.426Z,1016.09
2018-03-22T00:26:57.427Z,1016.07
2018-03-22T00:27:57.433Z,1016.04
2018-03-22T00:28:57.436Z,1016.09
2018-03-22T00:29:57.435Z,1016.07
2018-03-22T00:30:57.434Z,1016.08
2018-03-22T00:31:57.441Z,1016.06
2018-03-22T00:32:57.452Z,1016.01
2018-03-22T00:33:57.448Z,1016.08
2018-03-22T00:34:57.441Z,1016.01
2018-03-22T00:35:57.442Z,1016.00
2018-03-22T00:36:57.465Z,1015.99
2018-03-22T00:37:57.443Z,1015.98
2018-03-22T00:38:57.471Z,1015.95
2018-03-22T00:39:57.452Z,1015.95
2018-03-22T00:40:57.446Z,1015.90
2018-03-22T00:41:57.448Z,1015.84
2018-03-22T00:42:57.471Z,1015.83
2018-03-22T00:43:57.460Z,1015.82
2018-03-22T00:44:57.451Z,1015.74
2018-03-22T00:45:57.526Z,1015.85
2018-03-22T00:46:57.468Z,1015.71
2018-03-22T00:47:57.457Z,1015.72
2018-03-22T00:48:57.464Z,1015.63
2018-03-22T00:49:57.553Z,1015.59
2018-03-22T00:50:57.470Z,1015.55
2018-03-22T00:51:57.564Z,1015.50
2018-03-22T00:52:57.469Z,1015.45
2018-03-22T00:53:57.577Z,1015.47
2018-03-22T00:54:57.481Z,1015.41
2018-03-22T00:55:58.516Z,1015.38
2018-03-22T00:56:57.469Z,1015.38
2018-03-22T00:57:57.488Z,1015.37
2018-03-22T00:58:57.509Z,1015.36
2018-03-22T00:59:57.481Z,1015.36
2018-03-22T01:00:57.472Z,1015.32
2018-03-22T01:01:57.477Z,1015.36
2018-03-22T01:02:57.480Z,1015.38
2018-03-22T01:03:57.479Z,1015.31
2018-03-22T01:04:57.486Z,1015.29
2018-03-22T01:05:57.489Z,1015.26
2018-03-22T01:06:57.484Z,1015.30
2018-03-22T01:07:57.567Z,1015.22
2018-03-22T01:08:57.494Z,1015.22
2018-03-22T01:09:57.494Z,1015.19
2018-03-22T01:10:57.498Z,1015.15
2018-03-22T01:11:57.492Z,1015.13
2018-03-22T01:12:57.498Z,1015.12
2018-03-22T01:13:57.505Z,1015.06
2018-03-22T01:14:57.503Z,1015.04
2018-03-22T01:15:57.500Z,1015.03
2018-03-22T01:16:57.503Z,1015.05
2018-03-22T01:17:57.499Z,1014.96
2018-03-22T01:18:57.520Z,1014.98
2018-03-22T01:19:57.510Z,1014.92
2018-03-22T01:20:57.515Z,1014.91
2018-03-22T01:21:57.562Z,1014.89
2018-03-22T01:22:57.510Z,1014.84
2018-03-22T01:23:57.577Z,1014.82
2018-03-22T01:24:57.525Z,1014.86
2018-03-22T01:25:57.620Z,1014.72
2018-03-22T01:26:57.521Z,1014.70
2018-03-22T01:27:57.632Z,1014.64
2018-03-22T01:28:57.522Z,1014.59
2018-03-22T01:29:58.553Z,1014.56
2018-03-22T01:30:57.522Z,1014.55
2018-03-22T01:31:57.525Z,1014.59
2018-03-22T01:32:57.521Z,1014.49
2018-03-22T01:33:57.528Z,1014.49
2018-03-22T01:34:57.529Z,1014.49
2018-03-22T01:35:57.536Z,1014.44
2018-03-22T01:36:58.624Z,1014.40
2018-03-22T01:37:57.542Z,1014.44
2018-03-22T01:38:57.532Z,1014.30
2018-03-22T01:39:57.540Z,1014.33
2018-03-22T01:40:57.532Z,1014.23
2018-03-22T01:41:57.535Z,1014.24
2018-03-22T01:42:57.617Z,1014.26
2018-03-22T01:43:57.540Z,1014.18
2018-03-22T01:44:57.543Z,1014.18
2018-03-22T01:45:57.547Z,1014.15
2018-03-22T01:46:57.593Z,1014.13
2018-03-22T01:47:57.547Z,1014.19
2018-03-22T01:48:57.558Z,1014.17
2018-03-22T01:49:57.560Z,1014.14
2018-03-22T01:50:57.574Z,1014.07
2018-03-22T01:51:57.563Z,1014.07
2018-03-22T01:52:57.558Z,1014.11
2018-03-22T01:53:57.561Z,1014.03
2018-03-22T01:54:57.560Z,1014.05
2018-03-22T01:55:57.551Z,1013.98
2018-03-22T01:56:57.558Z,1013.94
2018-03-22T01:57:57.564Z,1013.90
2018-03-22T01:58:57.630Z,1013.81
2018-03-22T01:59:57.560Z,1013.89
2018-03-22T02:00:57.644Z,1013.80
2018-03-22T02:01:57.564Z,1013.79
2018-03-22T02:02:57.562Z,1013.70
2018-03-22T02:03:57.664Z,1013.65
2018-03-22T02:04:57.577Z,1013.70
2018-03-22T02:05:57.677Z,1013.76
2018-03-22T02:06:57.571Z,1013.81
2018-03-22T02:07:57.576Z,1013.81
2018-03-22T02:08:57.580Z,1013.80
2018-03-22T02:09:57.576Z,1013.83
2018-03-22T02:10:57.606Z,1013.83
2018-03-22T02:11:57.581Z,1013.80
2018-03-22T02:12:57.585Z,1013.82
2018-03-22T02:13:57.584Z,1013.74
2018-03-22T02:14:57.589Z,1013.72
2018-03-22T02:15:57.605Z,1013.64
2018-03-22T02:16:57.586Z,1013.66
2018-03-22T02:17:57.611Z,1013.62
2018-03-22T02:18:57.594Z,1013.62
2018-03-22T02:19:57.587Z,1013.59
2018-03-22T02:20:57.588Z,1013.56
2018-03-22T02:21:57.594Z,1013.54
2018-03-22T02:22:57.594Z,1013.59
2018-03-22T02:23:57.639Z,1013.56
2018-03-22T02:24:57.636Z,1013.54
2018-03-22T02:25:57.617Z,1013.50
2018-03-22T02:26:57.599Z,1013.58
2018-03-22T02:27:57.602Z,1013.52
2018-03-22T02:28:57.599Z,1013.48
2018-03-22T02:29:57.599Z,1013.57
2018-03-22T02:30:57.625Z,1013.52
2018-03-22T02:31:57.615Z,1013.50
2018-03-22T02:32:57.618Z,1013.59
2018-03-22T02:33:57.612Z,1013.55
2018-03-22T02:34:57.644Z,1013.50
2018-03-22T02:35:57.612Z,1013.51
2018-03-22T02:36:59.712Z,1013.48
2018-03-22T02:37:57.613Z,1013.46
2018-03-22T02:38:57.664Z,1013.40
2018-03-22T02:39:57.614Z,1013.34
2018-03-22T02:40:58.706Z,1013.34
2018-03-22T02:41:57.621Z,1013.30
2018-03-22T02:42:57.621Z,1013.27
2018-03-22T02:43:57.618Z,1013.34
2018-03-22T02:44:57.716Z,1013.30
2018-03-22T02:45:57.627Z,1013.19
2018-03-22T02:46:57.726Z,1013.12
2018-03-22T02:47:57.627Z,1013.09
2018-03-22T02:48:57.740Z,1013.06
2018-03-22T02:49:57.634Z,1013.09
2018-03-22T02:50:57.632Z,1013.09
2018-03-22T02:51:57.638Z,1013.05
2018-03-22T02:52:57.642Z,1012.98
2018-03-22T02:53:57.643Z,1012.99
2018-03-22T02:54:57.639Z,1012.97
2018-03-22T02:55:57.646Z,1012.85
2018-03-22T02:56:57.646Z,1012.90
2018-03-22T02:57:57.654Z,1012.87
2018-03-22T02:58:57.639Z,1012.83
2018-03-22T02:59:57.712Z,1012.90
2018-03-22T03:00:57.650Z,1012.86
2018-03-22T03:01:57.773Z,1012.87
2018-03-22T03:02:57.661Z,1012.79
2018-03-22T03:03:57.657Z,1012.87
2018-03-22T03:04:57.656Z,1012.80
2018-03-22T03:05:57.654Z,1012.83
2018-03-22T03:06:57.657Z,1012.83
2018-03-22T03:07:57.660Z,1012.76
2018-03-22T03:08:57.652Z,1012.78
2018-03-22T03:09:57.655Z,1012.65
2018-03-22T03:10:57.691Z,1012.59
2018-03-22T03:11:57.675Z,1012.68
2018-03-22T03:12:57.669Z,1012.63
2018-03-22T03:13:57.713Z,1012.63
2018-03-22T03:14:57.665Z,1012.58
2018-03-22T03:15:57.723Z,1012.55
2018-03-22T03:16:57.679Z,1012.51
2018-03-22T03:17:57.738Z,1012.56
2018-03-22T03:18:57.675Z,1012.52
2018-03-22T03:19:57.748Z,1012.52
2018-03-22T03:20:57.672Z,1012.45
2018-03-22T03:21:57.678Z,1012.36
2018-03-22T03:22:57.677Z,1012.41
2018-03-22T03:23:57.676Z,1012.40
2018-03-22T03:24:57.683Z,1012.41
2018-03-22T03:25:57.686Z,1012.32
2018-03-22T03:26:57.697Z,1012.27
2018-03-22T03:27:57.688Z,1012.27
2018-03-22T03:28:57.681Z,1012.27
2018-03-22T03:29:57.683Z,1012.28
2018-03-22T03:30:57.704Z,1012.27
2018-03-22T03:31:57.728Z,1012.29
2018-03-22T03:32:57.690Z,1012.19
2018-03-22T03:33:57.750Z,1012.18
2018-03-22T03:34:57.705Z,1012.18
2018-03-22T03:35:57.721Z,1012.14
2018-03-22T03:36:57.777Z,1012.07
2018-03-22T03:37:57.701Z,1012.11
2018-03-22T03:38:57.694Z,1012.13
2018-03-22T03:39:57.709Z,1012.09
2018-03-22T03:40:57.786Z,1012.06
2018-03-22T03:41:57.706Z,1012.05
2018-03-22T03:42:57.703Z,1012.02
2018-03-22T03:43:57.807Z,1011.98
2018-03-22T03:44:57.707Z,1012.02
2018-03-22T03:45:57.705Z,1011.97
2018-03-22T03:46:57.717Z,1012.01
2018-03-22T03:47:57.707Z,1012.00
2018-03-22T03:48:57.733Z,1011.97
2018-03-22T03:49:57.712Z,1011.93
2018-03-22T03:50:57.726Z,1012.03
2018-03-22T03:51:57.770Z,1011.98
2018-03-22T03:52:57.713Z,1011.93
2018-03-22T03:53:57.779Z,1012.01
2018-03-22T03:54:57.730Z,1011.97
2018-03-22T03:55:57.791Z,1011.96
2018-03-22T03:56:57.727Z,1011.99
2018-03-22T03:57:57.795Z,1011.93
2018-03-22T03:58:57.719Z,1011.97
2018-03-22T03:59:58.834Z,1011.91
2018-03-22T04:00:57.725Z,1011.86
2018-03-22T04:01:57.818Z,1011.83
2018-03-22T04:02:57.730Z,1011.76
2018-03-22T04:03:57.741Z,1011.82
2018-03-22T04:04:57.816Z,1011.77
2018-03-22T04:05:57.736Z,1011.79
2018-03-22T04:06:57.838Z,1011.77
2018-03-22T04:07:57.733Z,1011.74
2018-03-22T04:08:57.843Z,1011.70
2018-03-22T04:09:57.741Z,1011.79
2018-03-22T04:10:57.862Z,1011.65
2018-03-22T04:11:57.746Z,1011.65
2018-03-22T04:12:57.782Z,1011.70
2018-03-22T04:13:57.748Z,1011.65
2018-03-22T04:14:58.808Z,1011.65
2018-03-22T04:15:57.785Z,1011.64
2018-03-22T04:16:57.799Z,1011.62
2018-03-22T04:17:57.748Z,1011.65
2018-03-22T04:18:57.752Z,1011.58
2018-03-22T04:19:57.836Z,1011.59
2018-03-22T04:20:57.757Z,1011.58
2018-03-22T04:21:57.832Z,1011.57
2018-03-22T04:22:57.760Z,1011.53
2018-03-22T04:23:57.857Z,1011.54
2018-03-22T04:24:57.763Z,1011.49
2018-03-22T04:25:57.870Z,1011.49
2018-03-22T04:26:57.778Z,1011.44
2018-03-22T04:27:57.766Z,1011.45
2018-03-22T04:28:57.902Z,1011.41
2018-03-22T04:29:57.772Z,1011.36
2018-03-22T04:30:57.768Z,1011.43
2018-03-22T04:31:57.810Z,1011.31
2018-03-22T04:32:57.772Z,1011.27
2018-03-22T04:33:57.822Z,1011.31
2018-03-22T04:34:57.788Z,1011.28
2018-03-22T04:35:57.778Z,1011.22
2018-03-22T04:36:57.783Z,1011.23
2018-03-22T04:37:57.778Z,1011.11
2018-03-22T04:38:57.776Z,1011.07
2018-03-22T04:39:57.781Z,1011.19
2018-03-22T04:40:57.774Z,1011.16
2018-03-22T04:41:57.874Z,1011.17
2018-03-22T04:42:57.811Z,1011.13
2018-03-22T04:43:57.798Z,1011.18
2018-03-22T04:44:57.789Z,1011.13
2018-03-22T04:45:57.793Z,1011.11
2018-03-22T04:46:57.814Z,1011.02
2018-03-22T04:47:57.788Z,1010.99
2018-03-22T04:48:57.796Z,1011.01
2018-03-22T04:49:57.797Z,1011.01
2018-03-22T04:50:57.834Z,1010.95
2018-03-22T04:51:57.795Z,1011.00
2018-03-22T04:52:57.799Z,1010.96
2018-03-22T04:53:57.858Z,1010.95
2018-03-22T04:54:57.816Z,1010.99
2018-03-22T04:55:57.874Z,1010.90
2018-03-22T04:56:57.804Z,1010.92
2018-03-22T04:57:57.929Z,1010.83
2018-03-22T04:58:57.802Z,1010.82
2018-03-22T04:59:57.900Z,1010.79
2018-03-22T05:00:57.802Z,1010.74
2018-03-22T05:01:57.809Z,1010.71
2018-03-22T05:02:57.813Z,1010.67
2018-03-22T05:03:57.811Z,1010.70
2018-03-22T05:04:57.831Z,1010.78
2018-03-22T05:05:57.812Z,1010.68
2018-03-22T05:06:57.899Z,1010.70
2018-03-22T05:07:57.818Z,1010.70
2018-03-22T05:08:57.831Z,1010.69
2018-03-22T05:09:57.862Z,1010.60
2018-03-22T05:10:57.836Z,1010.63
2018-03-22T05:11:57.838Z,1010.55
2018-03-22T05:12:57.854Z,1010.60
2018-03-22T05:13:57.818Z,1010.67
2018-03-22T05:14:57.826Z,1010.57
2018-03-22T05:15:57.912Z,1010.63
2018-03-22T05:16:57.822Z,1010.62
2018-03-22T05:17:57.915Z,1010.76
2018-03-22T05:18:57.824Z,1010.72
2018-03-22T05:19:57.933Z,1010.65
2018-03-22T05:20:57.838Z,1010.68
2018-03-22T05:21:57.968Z,1010.69
2018-03-22T05:22:57.839Z,1010.72
2018-03-22T05:23:57.857Z,1010.62
2018-03-22T05:24:57.881Z,1010.66
2018-03-22T05:25:58.901Z,1010.63
2018-03-22T05:26:57.843Z,1010.62
2018-03-22T05:27:57.883Z,1010.58
2018-03-22T05:28:57.844Z,1010.57
2018-03-22T05:29:57.899Z,1010.52
2018-03-22T05:30:57.842Z,1010.55
2018-03-22T05:31:57.846Z,1010.55
2018-03-22T05:32:57.914Z,1010.55
2018-03-22T05:33:57.868Z,1010.47
2018-03-22T05:34:57.896Z,1010.49
2018-03-22T05:35:57.853Z,1010.42
2018-03-22T05:36:57.910Z,1010.43
2018-03-22T05:37:57.875Z,1010.49
2018-03-22T05:38:57.925Z,1010.41
2018-03-22T05:39:57.857Z,1010.36
2018-03-22T05:40:57.859Z,1010.37
2018-03-22T05:41:57.941Z,1010.34
2018-03-22T05:42:57.864Z,1010.29
2018-03-22T05:43:57.952Z,1010.30
2018-03-22T05:44:57.899Z,1010.30
2018-03-22T05:45:57.865Z,1010.30
2018-03-22T05:46:57.868Z,1010.27
2018-03-22T05:47:57.874Z,1010.27
2018-03-22T05:48:57.905Z,1010.24
2018-03-22T05:49:59.940Z,1010.25
2018-03-22T05:50:57.866Z,1010.23
2018-03-22T05:51:57.904Z,1010.19
2018-03-22T05:52:57.934Z,1010.27
2018-03-22T05:53:57.883Z,1010.24
2018-03-22T05:54:57.928Z,1010.32
2018-03-22T05:55:57.878Z,1010.17
2018-03-22T05:56:58.966Z,1010.17
2018-03-22T05:57:57.904Z,1010.09
2018-03-22T05:58:57.970Z,1010.12
2018-03-22T05:59:57.880Z,1010.06
2018-03-22T06:00:58.005Z,1010.15
2018-03-22T06:01:57.887Z,1010.15
2018-03-22T06:02:57.992Z,1010.11
2018-03-22T06:03:57.897Z,1010.15
2018-03-22T06:04:58.021Z,1010.08
2018-03-22T06:05:57.889Z,1010.09
2018-03-22T06:06:57.899Z,1010.15
2018-03-22T06:07:57.914Z,1010.17
2018-03-22T06:08:57.918Z,1010.17
2018-03-22T06:09:57.888Z,1010.18
2018-03-22T06:10:57.893Z,1010.19
2018-03-22T06:11:57.898Z,1010.10
2018-03-22T06:12:57.902Z,1010.04
2018-03-22T06:13:57.907Z,1010.10
2018-03-22T06:14:57.905Z,1009.99
2018-03-22T06:15:57.916Z,1010.05
2018-03-22T06:16:57.901Z,1010.07
2018-03-22T06:17:57.907Z,1010.06
2018-03-22T06:18:57.913Z,1009.99
2018-03-22T06:19:57.919Z,1009.98
2018-03-22T06:20:57.906Z,1010.04
2018-03-22T06:21:57.913Z,1010.00
2018-03-22T06:22:57.922Z,1009.95
2018-03-22T06:23:57.924Z,1009.98
2018-03-22T06:24:57.971Z,1009.95
2018-03-22T06:25:57.921Z,1009.94
2018-03-22T06:26:58.010Z,1009.95
2018-03-22T06:27:57.917Z,1009.89
2018-03-22T06:28:58.027Z,1009.91
2018-03-22T06:29:57.929Z,1009.90
2018-03-22T06:30:57.977Z,1009.83
2018-03-22T06:31:57.926Z,1009.95
2018-03-22T06:32:58.983Z,1009.86
2018-03-22T06:33:57.922Z,1009.85
2018-03-22T06:34:57.978Z,1009.85
2018-03-22T06:35:57.921Z,1009.82
2018-03-22T06:36:57.942Z,1009.84
2018-03-22T06:37:57.953Z,1009.77
2018-03-22T06:38:57.935Z,1009.77
2018-03-22T06:39:57.931Z,1009.71
2018-03-22T06:40:57.942Z,1009.68
2018-03-22T06:41:57.941Z,1009.72
2018-03-22T06:42:58.033Z,1009.68
2018-03-22T06:43:57.940Z,1009.68
2018-03-22T06:44:58.986Z,1009.59
2018-03-22T06:45:57.943Z,1009.60
2018-03-22T06:46:57.944Z,1009.64
2018-03-22T06:47:57.962Z,1009.61
2018-03-22T06:48:57.946Z,1009.62
2018-03-22T06:49:57.947Z,1009.66
2018-03-22T06:50:59.009Z,1009.65
2018-03-22T06:51:57.966Z,1009.57
2018-03-22T06:52:59.022Z,1009.61
2018-03-22T06:53:57.951Z,1009.60
2018-03-22T06:54:59.033Z,1009.61
2018-03-22T06:55:57.955Z,1009.60
2018-03-22T06:56:58.128Z,1009.60
2018-03-22T06:57:57.947Z,1009.60
2018-03-22T06:58:58.135Z,1009.64
2018-03-22T06:59:57.958Z,1009.58
2018-03-22T07:00:57.967Z,1009.58
2018-03-22T07:01:58.050Z,1009.59
2018-03-22T07:02:57.962Z,1009.60
2018-03-22T07:03:58.067Z,1009.60
2018-03-22T07:04:57.964Z,1009.64
2018-03-22T07:05:58.078Z,1009.63
2018-03-22T07:06:58.010Z,1009.60
2018-03-22T07:07:57.993Z,1009.59
2018-03-22T07:08:57.977Z,1009.58
2018-03-22T07:09:58.005Z,1009.60
2018-03-22T07:10:57.975Z,1009.65
2018-03-22T07:11:57.966Z,1009.58
2018-03-22T07:12:57.980Z,1009.57
2018-03-22T07:13:57.972Z,1009.64
2018-03-22T07:14:57.976Z,1009.61
2018-03-22T07:15:57.975Z,1009.58
2018-03-22T07:17:00.098Z,1009.62
2018-03-22T07:17:57.982Z,1009.55
2018-03-22T07:18:57.979Z,1009.58
2018-03-22T07:19:57.991Z,1009.61
2018-03-22T07:20:57.996Z,1009.53
2018-03-22T07:21:58.075Z,1009.54
2018-03-22T07:22:58.013Z,1009.55
2018-03-22T07:23:58.098Z,1009.47
2018-03-22T07:24:58.002Z,1009.49
2018-03-22T07:25:58.024Z,1009.47
2018-03-22T07:26:57.990Z,1009.48
2018-03-22T07:27:58.018Z,1009.45
2018-03-22T07:28:58.000Z,1009.46
2018-03-22T07:29:58.018Z,1009.41
2018-03-22T07:30:57.997Z,1009.45
2018-03-22T07:31:57.996Z,1009.43
2018-03-22T07:32:58.025Z,1009.41
2018-03-22T07:33:57.997Z,1009.45
2018-03-22T07:34:58.000Z,1009.41
2018-03-22T07:35:58.072Z,1009.40
2018-03-22T07:36:58.004Z,1009.45
2018-03-22T07:37:58.008Z,1009.42
2018-03-22T07:38:58.012Z,1009.32
2018-03-22T07:39:58.004Z,1009.34
2018-03-22T07:40:58.008Z,1009.29
2018-03-22T07:41:58.013Z,1009.34
2018-03-22T07:42:58.024Z,1009.31
2018-03-22T07:43:58.131Z,1009.25
2018-03-22T07:44:58.014Z,1009.27
2018-03-22T07:45:58.034Z,1009.33
2018-03-22T07:46:58.016Z,1009.26
2018-03-22T07:47:58.017Z,1009.25
2018-03-22T07:48:58.021Z,1009.18
2018-03-22T07:49:58.069Z,1009.22
2018-03-22T07:50:58.026Z,1009.27
2018-03-22T07:52:00.129Z,1009.20
2018-03-22T07:52:58.020Z,1009.23
2018-03-22T07:53:58.094Z,1009.26
2018-03-22T07:54:58.026Z,1009.22
2018-03-22T07:55:58.130Z,1009.18
2018-03-22T07:56:58.034Z,1009.15
2018-03-22T07:57:58.035Z,1009.19
2018-03-22T07:58:58.197Z,1009.13
2018-03-22T07:59:58.031Z,1009.16
2018-03-22T08:00:58.147Z,1009.09
2018-03-22T08:01:58.032Z,1009.05
2018-03-22T08:02:58.057Z,1009.10
2018-03-22T08:03:58.037Z,1009.07
2018-03-22T08:04:58.082Z,1009.11
2018-03-22T08:05:58.050Z,1009.00
2018-03-22T08:06:58.083Z,1008.97
2018-03-22T08:07:58.043Z,1008.98
2018-03-22T08:08:58.050Z,1008.91
2018-03-22T08:09:58.048Z,1008.96
2018-03-22T08:10:58.118Z,1008.93
2018-03-22T08:11:58.062Z,1008.92
2018-03-22T08:12:58.045Z,1008.88
2018-03-22T08:13:58.047Z,1008.90
2018-03-22T08:14:58.054Z,1008.88
2018-03-22T08:15:58.050Z,1008.81
2018-03-22T08:16:58.056Z,1008.88
2018-03-22T08:17:58.061Z,1008.82
2018-03-22T08:18:59.179Z,1008.81
2018-03-22T08:19:58.077Z,1008.87
2018-03-22T08:20:58.081Z,1008.85
2018-03-22T08:21:58.061Z,1008.79
2018-03-22T08:22:58.069Z,1008.85
2018-03-22T08:23:58.068Z,1008.78
2018-03-22T08:24:58.064Z,1008.84
2018-03-22T08:25:58.144Z,1008.83
2018-03-22T08:26:58.221Z,1008.81
2018-03-22T08:27:58.071Z,1008.78
2018-03-22T08:28:58.069Z,1008.83
2018-03-22T08:29:58.076Z,1008.81
2018-03-22T08:30:58.064Z,1008.74
2018-03-22T08:31:58.068Z,1008.82
2018-03-22T08:32:58.072Z,1008.81
2018-03-22T08:33:58.072Z,1008.76
2018-03-22T08:34:58.078Z,1008.73
2018-03-22T08:35:58.095Z,1008.78
2018-03-22T08:36:58.093Z,1008.68
2018-03-22T08:37:58.199Z,1008.70
2018-03-22T08:38:58.082Z,1008.69
2018-03-22T08:39:58.088Z,1008.62
2018-03-22T08:40:58.089Z,1008.64
2018-03-22T08:41:58.109Z,1008.61
2018-03-22T08:42:58.087Z,1008.68
2018-03-22T08:43:58.128Z,1008.63
2018-03-22T08:44:58.088Z,1008.66
2018-03-22T08:45:59.146Z,1008.62
2018-03-22T08:46:58.096Z,1008.74
2018-03-22T08:47:58.094Z,1008.68
2018-03-22T08:48:58.133Z,1008.68
2018-03-22T08:49:58.097Z,1008.66
2018-03-22T08:50:58.146Z,1008.69
2018-03-22T08:51:58.137Z,1008.64
2018-03-22T08:52:58.098Z,1008.67
2018-03-22T08:53:59.196Z,1008.63
2018-03-22T08:54:58.111Z,1008.58
2018-03-22T08:55:58.179Z,1008.59
2018-03-22T08:56:58.097Z,1008.61
2018-03-22T08:57:58.191Z,1008.60
2018-03-22T08:58:58.118Z,1008.57
2018-03-22T08:59:58.210Z,1008.56
2018-03-22T09:00:58.120Z,1008.64
2018-03-22T09:01:58.224Z,1008.50
2018-03-22T09:02:58.123Z,1008.56
2018-03-22T09:03:58.164Z,1008.57
2018-03-22T09:04:58.146Z,1008.51
2018-03-22T09:05:58.115Z,1008.47
2018-03-22T09:06:58.152Z,1008.48
2018-03-22T09:07:58.119Z,1008.46
2018-03-22T09:08:58.166Z,1008.51
2018-03-22T09:09:58.114Z,1008.54
2018-03-22T09:10:58.224Z,1008.50
2018-03-22T09:11:58.145Z,1008.48
2018-03-22T09:12:58.193Z,1008.48
2018-03-22T09:13:58.135Z,1008.49
2018-03-22T09:14:58.204Z,1008.51
2018-03-22T09:15:58.128Z,1008.46
2018-03-22T09:16:58.218Z,1008.40
2018-03-22T09:17:58.130Z,1008.47
2018-03-22T09:18:58.233Z,1008.40
2018-03-22T09:19:58.134Z,1008.40
2018-03-22T09:20:58.138Z,1008.37
2018-03-22T09:21:58.255Z,1008.37
2018-03-22T09:22:58.134Z,1008.36
2018-03-22T09:23:58.166Z,1008.39
2018-03-22T09:24:58.139Z,1008.44
2018-03-22T09:25:58.181Z,1008.43
2018-03-22T09:26:58.144Z,1008.48
2018-03-22T09:27:58.192Z,1008.52
2018-03-22T09:28:58.153Z,1008.51
2018-03-22T09:29:59.232Z,1008.48
2018-03-22T09:30:58.145Z,1008.43
2018-03-22T09:31:58.222Z,1008.50
2018-03-22T09:32:58.154Z,1008.40
2018-03-22T09:33:58.157Z,1008.38
2018-03-22T09:34:58.153Z,1008.40
2018-03-22T09:35:58.244Z,1008.31
2018-03-22T09:36:58.173Z,1008.32
2018-03-22T09:37:58.256Z,1008.30
2018-03-22T09:38:58.177Z,1008.25
2018-03-22T09:39:58.171Z,1008.26
2018-03-22T09:40:58.208Z,1008.28
2018-03-22T09:41:58.196Z,1008.25
2018-03-22T09:42:58.181Z,1008.25
2018-03-22T09:43:58.241Z,1008.23
2018-03-22T09:44:58.166Z,1008.17
2018-03-22T09:45:58.220Z,1008.22
2018-03-22T09:46:58.165Z,1008.22
2018-03-22T09:47:59.248Z,1008.24
2018-03-22T09:48:58.162Z,1008.29
2018-03-22T09:49:58.245Z,1008.26
2018-03-22T09:50:58.169Z,1008.26
2018-03-22T09:51:58.277Z,1008.28
2018-03-22T09:52:58.180Z,1008.34
2018-03-22T09:53:58.271Z,1008.30
2018-03-22T09:54:58.177Z,1008.20
2018-03-22T09:55:58.276Z,1008.23
2018-03-22T09:56:58.182Z,1008.18
2018-03-22T09:57:58.218Z,1008.14
2018-03-22T09:58:58.188Z,1008.17
2018-03-22T09:59:58.222Z,1008.13
2018-03-22T10:00:58.184Z,1008.11
2018-03-22T10:01:58.179Z,1008.05
2018-03-22T10:02:58.187Z,1008.15
2018-03-22T10:03:58.188Z,1008.13
2018-03-22T10:04:58.258Z,1008.11
2018-03-22T10:05:58.208Z,1008.19
2018-03-22T10:06:58.276Z,1008.15
2018-03-22T10:07:58.190Z,1008.16
2018-03-22T10:08:58.196Z,1008.22
2018-03-22T10:09:58.192Z,1008.25
2018-03-22T10:10:58.196Z,1008.23
2018-03-22T10:11:58.201Z,1008.21
2018-03-22T10:12:58.206Z,1008.16
2018-03-22T10:13:58.208Z,1008.22
2018-03-22T10:14:58.307Z,1008.13
2018-03-22T10:15:58.198Z,1008.11
2018-03-22T10:16:58.209Z,1008.07
2018-03-22T10:17:58.240Z,1008.06
2018-03-22T10:18:58.216Z,1008.13
2018-03-22T10:19:58.211Z,1008.20
2018-03-22T10:20:58.204Z,1008.21
2018-03-22T10:21:58.247Z,1008.10
2018-03-22T10:22:58.222Z,1008.19
2018-03-22T10:23:58.212Z,1008.17
2018-03-22T10:24:58.208Z,1008.11
2018-03-22T10:25:58.212Z,1008.20
2018-03-22T10:26:58.218Z,1008.12
2018-03-22T10:27:58.216Z,1008.12
2018-03-22T10:28:58.302Z,1008.15
2018-03-22T10:29:58.218Z,1008.10
2018-03-22T10:30:58.227Z,1008.10
2018-03-22T10:31:58.231Z,1008.13
2018-03-22T10:32:58.232Z,1008.11
2018-03-22T10:33:58.231Z,1008.08
2018-03-22T10:34:58.433Z,1008.07
2018-03-22T10:35:58.297Z,1008.08
2018-03-22T10:36:58.239Z,1008.07
2018-03-22T10:37:58.233Z,1008.08
2018-03-22T10:38:58.236Z,1008.04
2018-03-22T10:39:58.235Z,1008.01
2018-03-22T10:40:58.239Z,1008.02
2018-03-22T10:41:58.286Z,1008.01
2018-03-22T10:42:58.242Z,1007.99
2018-03-22T10:43:58.243Z,1007.99
2018-03-22T10:44:58.242Z,1007.98
2018-03-22T10:45:58.240Z,1007.95
2018-03-22T10:46:58.244Z,1007.99
2018-03-22T10:47:58.305Z,1007.92
2018-03-22T10:48:58.245Z,1007.94
2018-03-22T10:49:59.343Z,1007.92
2018-03-22T10:50:58.298Z,1007.93
2018-03-22T10:51:58.324Z,1007.95
2018-03-22T10:52:58.252Z,1007.90
2018-03-22T10:53:58.342Z,1007.89
2018-03-22T10:54:58.252Z,1007.90
2018-03-22T10:55:58.255Z,1007.91
2018-03-22T10:56:58.267Z,1007.82
2018-03-22T10:57:58.352Z,1007.90
2018-03-22T10:58:58.260Z,1007.84
2018-03-22T10:59:58.369Z,1007.86
2018-03-22T11:00:58.266Z,1007.77
2018-03-22T11:01:58.377Z,1007.81
2018-03-22T11:02:58.270Z,1007.83
2018-03-22T11:03:58.290Z,1007.82
2018-03-22T11:04:58.266Z,1007.82
2018-03-22T11:05:58.278Z,1007.83
2018-03-22T11:06:58.272Z,1007.81
2018-03-22T11:07:58.314Z,1007.87
2018-03-22T11:08:58.273Z,1007.87
2018-03-22T11:09:58.276Z,1007.86
2018-03-22T11:10:58.284Z,1007.82
2018-03-22T11:11:58.335Z,1007.79
2018-03-22T11:12:58.286Z,1007.80
2018-03-22T11:13:58.349Z,1007.84
2018-03-22T11:14:58.282Z,1007.85
2018-03-22T11:15:58.366Z,1007.82
2018-03-22T11:16:58.287Z,1007.86
2018-03-22T11:18:01.006Z,1007.86
2018-03-22T11:19:00.015Z,1007.79
2018-03-22T11:19:58.301Z,1007.74
2018-03-22T11:21:00.012Z,1007.68
2018-03-22T11:21:58.407Z,1007.70
2018-03-22T11:23:00.253Z,1007.70
2018-03-22T11:24:01.003Z,1007.73
2018-03-22T11:24:58.325Z,1007.64
2018-03-22T11:25:58.324Z,1007.64
2018-03-22T11:26:58.335Z,1007.64
2018-03-22T11:27:58.297Z,1007.63
2018-03-22T11:28:58.300Z,1007.68
2018-03-22T11:29:58.357Z,1007.60
2018-03-22T11:30:58.317Z,1007.65
2018-03-22T11:31:58.369Z,1007.61
2018-03-22T11:32:58.310Z,1007.63
2018-03-22T11:33:58.370Z,1007.64
2018-03-22T11:34:58.326Z,1007.58
2018-03-22T11:35:58.386Z,1007.59
2018-03-22T11:36:58.319Z,1007.64
2018-03-22T11:37:58.400Z,1007.67
2018-03-22T11:38:58.322Z,1007.67
2018-03-22T11:39:58.416Z,1007.72
2018-03-22T11:40:58.323Z,1007.66
2018-03-22T11:41:58.427Z,1007.67
2018-03-22T11:42:58.336Z,1007.66
2018-03-22T11:43:58.444Z,1007.65
2018-03-22T11:44:58.332Z,1007.66
2018-03-22T11:45:58.420Z,1007.59
2018-03-22T11:46:58.328Z,1007.61
2018-03-22T11:47:58.368Z,1007.57
2018-03-22T11:48:58.332Z,1007.57
2018-03-22T11:49:58.384Z,1007.59
2018-03-22T11:50:58.345Z,1007.62
2018-03-22T11:51:58.395Z,1007.61
2018-03-22T11:52:58.341Z,1007.53
2018-03-22T11:53:58.403Z,1007.60
2018-03-22T11:54:58.348Z,1007.50
2018-03-22T11:55:58.418Z,1007.52
2018-03-22T11:56:58.363Z,1007.54
2018-03-22T11:57:58.434Z,1007.51
2018-03-22T11:58:58.349Z,1007.51
2018-03-22T11:59:58.354Z,1007.54
2018-03-22T12:00:58.353Z,1007.48
2018-03-22T12:01:59.422Z,1007.50
2018-03-22T12:02:58.359Z,1007.54
2018-03-22T12:03:58.370Z,1007.50
2018-03-22T12:04:58.372Z,1007.49
2018-03-22T12:05:59.407Z,1007.51